Time;durP1;ratioP1;P1;durP2;ratioP2;P2;SDS_P1;SDS_P2;PMS_P1;PMS_P2;Temp;Humidity;BMP_temperature;BMP_pressure;BME280_temperature;BME280_humidity;BME280_pressure;Samples;Min_cycle;Max_cycle;Signal;HPM_P1;HPM_P2
2023/04/16 00:00:55;;;;;;;29.45;23.50;;;7.80;92.20;;;;;;5084145;28;20445;-44
2023/04/16 00:03:22;;;;;;;25.27;22.33;;;7.90;92.30;;;;;;5075006;28;20016;-44
2023/04/16 00:05:48;;;;;;;27.55;22.90;;;7.80;92.30;;;;;;5076757;28;20104;-43
2023/04/16 00:08:17;;;;;;;27.85;21.45;;;7.90;92.20;;;;;;5089242;28;20103;-43
2023/04/16 00:10:44;;;;;;;28.90;22.77;;;7.90;92.20;;;;;;5057126;28;20359;-43
2023/04/16 00:13:12;;;;;;;23.92;20.98;;;7.90;92.20;;;;;;5076204;28;20107;-42
2023/04/16 00:15:38;;;;;;;29.23;21.90;;;7.90;92.10;;;;;;5083660;28;20090;-42
2023/04/16 00:18:03;;;;;;;25.55;21.05;;;7.90;92.10;;;;;;5075814;28;20032;-43
2023/04/16 00:20:31;;;;;;;25.27;21.48;;;7.80;92.00;;;;;;5058497;28;20467;-43
2023/04/16 00:22:59;;;;;;;22.50;19.50;;;7.80;91.90;;;;;;5076548;28;20461;-43
2023/04/16 00:25:26;;;;;;;25.65;20.52;;;7.80;91.90;;;;;;5087951;28;20043;-42
2023/04/16 00:27:52;;;;;;;23.25;19.73;;;7.70;91.80;;;;;;5085115;28;20024;-42
2023/04/16 00:30:20;;;;;;;28.10;21.60;;;7.70;91.90;;;;;;5086625;28;20032;-44
2023/04/16 00:32:51;;;;;;;24.70;21.52;;;7.60;91.70;;;;;;5073671;28;20037;-42
2023/04/16 00:35:18;;;;;;;27.10;20.92;;;7.50;91.80;;;;;;5076118;28;20036;-43
2023/04/16 00:37:46;;;;;;;23.92;21.45;;;7.50;91.80;;;;;;5082242;28;20036;-43
2023/04/16 00:40:11;;;;;;;28.80;22.00;;;7.40;91.90;;;;;;5086561;28;20032;-42
2023/04/16 00:42:38;;;;;;;28.92;24.40;;;7.40;92.00;;;;;;5075497;28;20040;-42
2023/04/16 00:45:07;;;;;;;27.98;23.63;;;7.40;92.10;;;;;;5078404;28;20450;-42
2023/04/16 00:47:34;;;;;;;27.00;24.15;;;7.40;92.10;;;;;;5082184;28;20036;-42
2023/04/16 00:50:04;;;;;;;33.58;26.58;;;7.40;92.10;;;;;;5087755;28;20024;-42
2023/04/16 00:52:33;;;;;;;31.92;27.33;;;7.40;92.30;;;;;;5062371;28;20036;-43
2023/04/16 00:55:03;;;;;;;32.25;25.48;;;7.40;92.40;;;;;;5094893;28;20024;-42
2023/04/16 00:57:32;;;;;;;;;;;7.40;92.50;;;;;;5074320;28;20028;-44
2023/04/16 01:00:01;;;;;;;36.55;24.98;;;7.50;92.60;;;;;;5082986;28;19918;-43
2023/04/16 01:02:28;;;;;;;26.67;22.20;;;7.40;92.70;;;;;;5076750;28;20114;-42
2023/04/16 01:04:54;;;;;;;29.65;21.80;;;7.40;92.70;;;;;;5076832;28;20028;-42
2023/04/16 01:07:21;;;;;;;26.65;22.50;;;7.50;92.70;;;;;;5060841;28;20032;-41
2023/04/16 01:09:51;;;;;;;30.30;22.52;;;7.50;92.70;;;;;;5076161;28;20427;-45
2023/04/16 01:12:18;;;;;;;25.85;22.17;;;7.60;92.80;;;;;;5092749;28;20346;-43
2023/04/16 01:14:44;;;;;;;25.75;21.90;;;7.60;92.90;;;;;;5079629;28;20547;-43
2023/04/16 01:17:11;;;;;;;29.95;21.90;;;7.60;92.80;;;;;;5061673;28;20127;-44
2023/04/16 01:19:41;;;;;;;27.98;22.05;;;7.70;92.70;;;;;;5075364;28;20029;-41
2023/04/16 01:22:08;;;;;;;25.00;22.17;;;7.70;92.70;;;;;;5089656;28;20064;-42
2023/04/16 01:24:36;;;;;;;24.17;20.33;;;7.80;92.60;;;;;;5094419;28;20024;-43
2023/04/16 01:27:02;;;;;;;26.05;21.38;;;7.80;92.40;;;;;;5080217;28;20043;-42
2023/04/16 01:29:33;;;;;;;26.20;21.23;;;7.80;92.40;;;;;;5075792;28;20039;-42
2023/04/16 01:32:00;;;;;;;26.80;21.38;;;7.80;92.30;;;;;;5079447;28;20480;-42
2023/04/16 01:34:27;;;;;;;26.50;22.30;;;7.80;92.20;;;;;;5061210;28;20024;-43
2023/04/16 01:36:54;;;;;;;25.00;21.38;;;7.80;92.20;;;;;;5095099;28;20052;-42
2023/04/16 01:39:23;;;;;;;27.33;20.80;;;7.80;92.10;;;;;;5091828;28;20357;-43
2023/04/16 01:41:51;;;;;;;25.98;19.67;;;7.80;92.10;;;;;;5092030;28;20426;-43
2023/04/16 01:44:17;;;;;;;27.48;22.45;;;7.80;92.00;;;;;;5079070;28;20041;-42
2023/04/16 01:46:45;;;;;;;26.83;22.08;;;7.70;92.10;;;;;;5071729;28;20028;-42
2023/04/16 01:49:16;;;;;;;26.33;21.05;;;7.70;92.10;;;;;;5084285;28;20440;-41
2023/04/16 01:51:42;;;;;;;26.23;21.48;;;7.70;92.10;;;;;;5056638;28;20135;-42
2023/04/16 01:54:09;;;;;;;27.73;22.10;;;7.70;92.20;;;;;;5058500;28;20147;-42
2023/04/16 01:56:36;;;;;;;26.98;21.92;;;7.70;92.30;;;;;;5091486;28;20032;-41
2023/04/16 01:59:04;;;;;;;26.20;21.33;;;7.70;92.40;;;;;;5089137;28;20033;-43
2023/04/16 02:01:33;;;;;;;28.40;21.05;;;7.80;92.50;;;;;;5078157;28;20028;-43
2023/04/16 02:04:00;;;;;;;28.25;22.10;;;7.80;92.60;;;;;;5081870;28;20020;-45
2023/04/16 02:06:30;;;;;;;27.05;21.00;;;7.90;92.60;;;;;;5075775;28;20072;-42
2023/04/16 02:08:58;;;;;;;;;;;7.90;92.70;;;;;;5095108;28;20025;-42
2023/04/16 02:11:25;;;;;;;23.35;19.13;;;8.00;92.60;;;;;;5087237;28;20341;-41
2023/04/16 02:13:52;;;;;;;26.58;20.67;;;8.00;92.60;;;;;;5077835;28;20515;-43
2023/04/16 02:16:21;;;;;;;27.52;22.02;;;8.00;92.50;;;;;;5082641;28;20126;-42
2023/04/16 02:18:48;;;;;;;24.83;21.00;;;8.10;92.40;;;;;;5073228;28;20021;-42
2023/04/16 02:21:13;;;;;;;26.52;20.38;;;8.10;92.30;;;;;;5060085;28;20462;-41
2023/04/16 02:23:40;;;;;;;23.38;19.75;;;8.10;92.30;;;;;;5075203;28;20044;-42
2023/04/16 02:26:07;;;;;;;24.92;20.35;;;8.20;92.30;;;;;;5084940;28;20021;-43
2023/04/16 02:28:34;;;;;;;24.95;20.75;;;8.20;92.20;;;;;;5073784;28;20119;-43
2023/04/16 02:31:01;;;;;;;29.08;22.25;;;8.20;92.20;;;;;;5080140;28;20653;-42
2023/04/16 02:33:28;;;;;;;24.45;20.80;;;8.20;92.20;;;;;;5084916;28;20032;-43
2023/04/16 02:35:54;;;;;;;27.73;21.70;;;8.20;92.30;;;;;;5074398;28;20024;-43
2023/04/16 02:38:22;;;;;;;31.13;22.88;;;8.20;92.30;;;;;;5093968;28;20024;-43
2023/04/16 02:40:51;;;;;;;27.10;21.30;;;8.20;92.30;;;;;;5091139;28;20036;-45
2023/04/16 02:43:18;;;;;;;26.70;21.13;;;8.20;92.40;;;;;;5075159;28;20429;-47
2023/04/16 02:45:45;;;;;;;27.35;21.98;;;8.20;92.30;;;;;;5091099;28;20419;-45
2023/04/16 02:48:13;;;;;;;29.42;21.52;;;8.20;92.30;;;;;;5056024;28;20044;-45
2023/04/16 02:50:40;;;;;;;25.40;22.52;;;8.20;92.30;;;;;;5055856;28;20103;-45
2023/04/16 02:53:09;;;;;;;22.48;20.05;;;8.20;92.40;;;;;;5081433;28;20443;-43
2023/04/16 02:55:39;;;;;;;24.45;21.35;;;8.20;92.40;;;;;;5081447;28;20036;-45
2023/04/16 02:58:06;;;;;;;25.40;20.88;;;8.20;92.40;;;;;;5075394;28;20036;-42
2023/04/16 03:00:33;;;;;;;26.80;21.83;;;8.20;92.50;;;;;;5091837;28;20046;-42
2023/04/16 03:02:58;;;;;;;25.55;21.65;;;8.20;92.50;;;;;;5086111;28;20024;-42
2023/04/16 03:05:25;;;;;;;29.33;22.55;;;8.20;92.40;;;;;;5073287;28;20124;-41
2023/04/16 03:07:55;;;;;;;26.45;20.33;;;8.30;92.40;;;;;;5072676;28;20068;-42
2023/04/16 03:10:21;;;;;;;;;;;8.30;92.30;;;;;;5077029;28;20028;-41
2023/04/16 03:12:49;;;;;;;26.83;21.38;;;8.30;92.20;;;;;;5055116;28;19966;-42
2023/04/16 03:15:18;;;;;;;26.10;21.88;;;8.30;92.30;;;;;;5061001;28;20035;-45
2023/04/16 03:17:45;;;;;;;28.48;21.65;;;8.30;92.40;;;;;;5078551;28;20032;-42
2023/04/16 03:20:13;;;;;;;32.63;23.90;;;8.30;92.50;;;;;;5078170;28;20071;-41
2023/04/16 03:22:40;;;;;;;35.35;23.40;;;8.40;92.60;;;;;;5054821;28;20040;-45
2023/04/16 03:25:10;;;;;;;31.20;22.63;;;8.40;92.70;;;;;;5087601;28;20043;-43
2023/04/16 03:27:41;;;;;;;33.25;22.35;;;8.40;92.80;;;;;;5079239;28;20024;-45
2023/04/16 03:30:12;;;;;;;25.73;22.02;;;8.40;92.80;;;;;;5056982;28;20032;-44
2023/04/16 03:32:44;;;;;;;31.58;23.63;;;8.40;92.80;;;;;;5056018;28;20031;-42
2023/04/16 03:35:11;;;;;;;28.83;24.00;;;8.40;92.80;;;;;;5072637;28;20108;-43
2023/04/16 03:37:40;;;;;;;28.50;24.30;;;8.40;92.80;;;;;;5044819;28;20048;-43
2023/04/16 03:40:08;;;;;;;30.40;24.00;;;8.40;92.80;;;;;;5082018;28;20115;-43
2023/04/16 03:42:37;;;;;;;34.38;26.52;;;8.40;92.80;;;;;;5063940;28;20107;-42
2023/04/16 03:45:04;;;;;;;31.25;26.63;;;8.40;92.90;;;;;;5081288;28;20032;-43
2023/04/16 03:47:31;;;;;;;32.00;25.05;;;8.30;93.00;;;;;;5082571;28;20388;-43
2023/04/16 03:49:58;;;;;;;29.65;26.42;;;8.30;93.00;;;;;;5081949;28;20049;-46
2023/04/16 03:52:27;;;;;;;37.47;27.92;;;8.30;93.00;;;;;;5081799;28;20111;-42
2023/04/16 03:54:53;;;;;;;36.30;26.88;;;8.30;93.00;;;;;;5063376;28;20335;-42
2023/04/16 03:57:20;;;;;;;34.80;27.80;;;8.30;93.00;;;;;;5082746;28;20377;-41
2023/04/16 03:59:49;;;;;;;32.95;26.70;;;8.30;93.00;;;;;;5082419;28;20033;-42
2023/04/16 04:02:18;;;;;;;36.58;30.75;;;8.30;93.10;;;;;;5081232;28;20429;-43
2023/04/16 04:04:45;;;;;;;38.88;29.15;;;8.30;93.10;;;;;;5081003;28;20035;-44
2023/04/16 04:07:11;;;;;;;33.65;26.88;;;8.30;93.00;;;;;;5081431;28;20099;-44
2023/04/16 04:09:39;;;;;;;30.80;26.92;;;8.30;93.00;;;;;;5068534;28;20025;-42
2023/04/16 04:12:05;;;;;;;35.03;27.50;;;8.20;93.00;;;;;;5088401;28;20093;-43
2023/04/16 04:14:38;;;;;;;30.75;25.58;;;8.20;93.00;;;;;;5070413;28;20024;-43
2023/04/16 04:17:10;;;;;;;30.15;25.45;;;8.20;92.90;;;;;;5088990;28;20385;-43
2023/04/16 04:19:41;;;;;;;31.25;27.92;;;8.20;92.90;;;;;;5091735;28;20405;-42
2023/04/16 04:22:09;;;;;;;32.28;26.10;;;8.20;92.80;;;;;;5088196;28;20056;-43
2023/04/16 04:24:36;;;;;;;32.10;27.27;;;8.20;92.80;;;;;;5070989;28;20028;-43
2023/04/16 04:27:05;;;;;;;37.05;28.67;;;8.20;92.80;;;;;;5089045;28;20020;-43
2023/04/16 04:29:32;;;;;;;35.65;26.42;;;8.20;92.80;;;;;;5092422;28;20369;-43
2023/04/16 04:32:01;;;;;;;32.30;26.63;;;8.20;92.90;;;;;;5091372;28;20032;-44
2023/04/16 04:34:26;;;;;;;33.28;25.85;;;8.30;92.90;;;;;;5057936;28;20491;-45
2023/04/16 04:36:55;;;;;;;33.83;26.20;;;8.30;92.90;;;;;;5072089;28;20041;-43
2023/04/16 04:39:22;;;;;;;31.08;24.92;;;8.30;92.90;;;;;;5072003;28;20365;-42
2023/04/16 04:41:48;;;;;;;32.22;25.33;;;8.30;92.90;;;;;;5069335;28;20078;-41
2023/04/16 04:44:13;;;;;;;31.17;25.92;;;8.30;92.90;;;;;;5089019;28;20441;-41
2023/04/16 04:46:39;;;;;;;32.20;26.10;;;8.40;92.90;;;;;;5087587;28;20516;-44
2023/04/16 04:49:06;;;;;;;34.17;25.45;;;8.30;92.90;;;;;;5073216;28;20098;-45
2023/04/16 04:51:33;;;;;;;30.83;26.33;;;8.30;92.90;;;;;;5095997;28;20338;-43
2023/04/16 04:53:59;;;;;;;31.25;26.63;;;8.30;92.90;;;;;;5088411;28;20035;-44
2023/04/16 04:56:26;;;;;;;28.15;24.52;;;8.30;92.80;;;;;;5086972;28;20039;-44
2023/04/16 04:58:52;;;;;;;27.08;22.98;;;8.30;92.80;;;;;;5088149;28;20077;-46
2023/04/16 05:01:24;;;;;;;24.85;21.55;;;8.30;92.80;;;;;;5082484;28;20081;-42
2023/04/16 05:03:50;;;;;;;30.92;25.13;;;8.30;92.80;;;;;;5075374;28;20185;-42
2023/04/16 05:06:19;;;;;;;27.38;23.10;;;8.40;92.70;;;;;;5066299;28;20119;-43
2023/04/16 05:08:46;;;;;;;;;;;8.30;92.70;;;;;;5075820;28;20450;-43
2023/04/16 05:11:12;;;;;;;27.92;23.35;;;8.30;92.60;;;;;;5082803;28;19919;-45
2023/04/16 05:13:38;;;;;;;27.88;23.10;;;8.30;92.60;;;;;;5077533;28;20035;-45
2023/04/16 05:16:05;;;;;;;25.77;21.95;;;8.20;92.60;;;;;;5089819;28;20488;-42
2023/04/16 05:18:32;;;;;;;28.33;25.33;;;8.30;92.60;;;;;;5093394;28;20043;-42
2023/04/16 05:20:58;;;;;;;28.05;24.17;;;8.30;92.60;;;;;;5095223;28;20028;-43
2023/04/16 05:23:23;;;;;;;30.58;23.58;;;8.30;92.60;;;;;;5092630;28;20099;-47
2023/04/16 05:25:49;;;;;;;31.33;25.45;;;8.30;92.60;;;;;;5086127;28;20046;-42
2023/04/16 05:28:15;;;;;;;27.63;22.85;;;8.40;92.60;;;;;;5057473;28;20036;-42
2023/04/16 05:30:42;;;;;;;31.77;25.77;;;8.40;92.60;;;;;;5080016;28;20028;-41
2023/04/16 05:33:10;;;;;;;29.15;23.92;;;8.40;92.60;;;;;;5094866;28;20461;-43
2023/04/16 05:35:36;;;;;;;28.33;24.48;;;8.40;92.60;;;;;;5094411;28;20038;-43
2023/04/16 05:38:05;;;;;;;27.88;23.30;;;8.50;92.70;;;;;;5083626;28;20104;-44
2023/04/16 05:40:32;;;;;;;32.20;24.25;;;8.50;92.70;;;;;;5080920;28;20311;-47
2023/04/16 05:42:59;;;;;;;31.10;26.45;;;8.50;92.60;;;;;;5068009;28;20024;-42
2023/04/16 05:45:45;;;;;;;32.08;23.90;;;8.60;92.60;;;;;;5081319;28;20043;-44
2023/04/16 05:48:12;;;;;;;27.90;22.50;;;8.60;92.60;;;;;;5088832;28;20028;-42
2023/04/16 05:50:41;;;;;;;32.67;25.20;;;8.70;92.70;;;;;;5091118;28;20127;-43
2023/04/16 05:53:08;;;;;;;29.45;24.30;;;8.80;92.60;;;;;;5086313;28;20032;-44
2023/04/16 05:55:38;;;;;;;31.80;25.05;;;8.80;92.50;;;;;;5069756;28;20035;-45
2023/04/16 05:58:04;;;;;;;30.17;25.77;;;8.90;92.50;;;;;;5090345;28;20038;-43
2023/04/16 06:00:32;;;;;;;30.00;25.40;;;8.90;92.50;;;;;;5072617;28;20024;-44
2023/04/16 06:02:59;;;;;;;28.52;24.58;;;8.90;92.40;;;;;;5060932;28;20035;-44
2023/04/16 06:05:32;;;;;;;29.02;25.75;;;8.90;92.40;;;;;;5073870;28;20044;-43
2023/04/16 06:07:58;;;;;;;30.83;25.08;;;9.00;92.30;;;;;;5079268;28;20020;-42
2023/04/16 06:10:23;;;;;;;26.02;21.95;;;9.00;92.30;;;;;;5086379;28;20024;-42
2023/04/16 06:12:50;;;;;;;28.55;23.27;;;9.00;92.30;;;;;;5082355;28;20744;-43
2023/04/16 06:15:19;;;;;;;28.83;24.10;;;9.00;92.30;;;;;;5080365;28;20133;-43
2023/04/16 06:17:45;;;;;;;28.77;23.40;;;9.10;92.00;;;;;;5086222;28;20584;-47
2023/04/16 06:20:12;;;;;;;30.13;23.65;;;9.10;91.90;;;;;;5073118;28;20061;-47
2023/04/16 06:22:40;;;;;;;25.58;22.80;;;9.10;91.90;;;;;;5064655;28;20057;-45
2023/04/16 06:25:09;;;;;;;27.05;23.67;;;9.10;91.60;;;;;;5073489;28;20108;-44
2023/04/16 06:27:38;;;;;;;27.35;22.33;;;9.20;91.30;;;;;;5088847;28;20020;-44
2023/04/16 06:30:10;;;;;;;26.67;22.63;;;9.20;91.20;;;;;;5065959;28;20056;-44
2023/04/16 06:32:36;;;;;;;25.13;22.20;;;9.30;91.10;;;;;;5086431;28;20120;-43
2023/04/16 06:35:08;;;;;;;24.60;21.95;;;9.40;91.00;;;;;;5057405;28;20652;-45
2023/04/16 06:37:44;;;;;;;27.75;22.73;;;9.40;91.00;;;;;;5073296;28;20113;-42
2023/04/16 06:40:14;;;;;;;26.70;22.20;;;9.40;91.00;;;;;;5073730;28;20025;-42
2023/04/16 06:42:41;;;;;;;26.45;23.02;;;9.40;90.90;;;;;;5092642;28;20107;-47
2023/04/16 06:45:12;;;;;;;27.27;23.75;;;9.50;90.80;;;;;;5065894;28;20028;-45
2023/04/16 06:47:39;;;;;;;28.23;21.85;;;9.60;90.90;;;;;;5093337;28;20044;-46
2023/04/16 06:50:08;;;;;;;27.65;23.17;;;9.70;90.80;;;;;;5078150;28;20044;-46
2023/04/16 06:52:34;;;;;;;25.33;20.88;;;9.70;90.70;;;;;;5091509;28;20366;-46
2023/04/16 06:55:03;;;;;;;29.88;21.83;;;9.70;90.50;;;;;;5073823;28;20068;-45
2023/04/16 06:57:29;;;;;;;26.55;23.13;;;9.80;90.50;;;;;;5074428;28;20043;-43
2023/04/16 06:59:56;;;;;;;28.13;24.80;;;9.90;90.60;;;;;;5083719;28;20028;-43
2023/04/16 07:02:25;;;;;;;27.20;24.10;;;9.90;90.50;;;;;;5085476;28;20496;-43
2023/04/16 07:04:53;;;;;;;25.15;22.42;;;10.00;90.40;;;;;;5083317;28;20042;-43
2023/04/16 07:07:21;;;;;;;26.73;23.50;;;10.00;90.20;;;;;;5080999;28;20410;-45
2023/04/16 07:09:47;;;;;;;25.80;23.13;;;10.10;90.40;;;;;;5082776;28;20046;-46
2023/04/16 07:12:15;;;;;;;30.25;23.40;;;10.10;90.10;;;;;;5086867;28;20453;-43
2023/04/16 07:14:43;;;;;;;26.15;23.42;;;10.20;89.90;;;;;;5091566;28;20330;-45
2023/04/16 07:17:10;;;;;;;26.05;23.33;;;10.20;89.40;;;;;;5075922;28;20362;-43
2023/04/16 07:19:39;;;;;;;28.10;24.27;;;10.20;89.10;;;;;;5094286;28;20016;-44
2023/04/16 07:22:07;;;;;;;27.13;23.70;;;10.30;89.40;;;;;;5078458;28;20039;-43
2023/04/16 07:24:37;;;;;;;28.40;22.05;;;10.40;89.20;;;;;;5067707;28;20028;-45
2023/04/16 07:27:08;;;;;;;28.40;25.40;;;10.40;88.80;;;;;;5082775;28;20453;-43
2023/04/16 07:29:34;;;;;;;25.25;22.65;;;10.50;88.70;;;;;;5084326;28;20043;-45
2023/04/16 07:32:01;;;;;;;28.30;24.98;;;10.50;89.10;;;;;;5072105;28;20395;-47
2023/04/16 07:34:30;;;;;;;28.00;25.02;;;10.60;89.20;;;;;;5072606;28;20036;-44
2023/04/16 07:36:59;;;;;;;32.03;25.92;;;10.60;89.20;;;;;;5072335;28;20039;-44
2023/04/16 07:39:26;;;;;;;27.13;24.10;;;10.50;88.90;;;;;;5071504;28;20064;-43
2023/04/16 07:41:52;;;;;;;28.02;25.02;;;10.50;89.10;;;;;;5064989;28;20104;-44
2023/04/16 07:44:19;;;;;;;27.02;24.13;;;10.40;89.30;;;;;;5084998;28;20591;-44
2023/04/16 07:46:47;;;;;;;31.20;26.52;;;10.50;89.70;;;;;;5079629;28;20029;-47
2023/04/16 07:49:17;;;;;;;29.08;26.00;;;10.60;89.80;;;;;;5084565;28;20039;-44
2023/04/16 07:51:45;;;;;;;29.30;26.23;;;10.60;89.70;;;;;;5071180;28;20032;-43
2023/04/16 07:54:12;;;;;;;33.13;26.90;;;10.60;89.40;;;;;;5072441;28;20040;-46
2023/04/16 07:56:39;;;;;;;29.15;25.38;;;10.60;89.50;;;;;;5075450;28;20031;-46
2023/04/16 07:59:07;;;;;;;28.85;25.73;;;10.70;89.60;;;;;;5085883;28;20071;-44
2023/04/16 08:01:35;;;;;;;27.33;23.50;;;10.80;89.20;;;;;;5068998;28;20028;-46
2023/04/16 08:04:03;;;;;;;30.48;26.95;;;10.90;88.90;;;;;;5072047;28;20373;-45
2023/04/16 08:06:31;;;;;;;27.65;24.70;;;11.00;88.50;;;;;;5072400;28;20020;-48
2023/04/16 08:08:58;;;;;;;28.25;25.05;;;11.00;88.70;;;;;;5073687;28;20033;-46
2023/04/16 08:11:25;;;;;;;27.45;24.55;;;11.10;88.20;;;;;;5054099;28;20029;-45
2023/04/16 08:13:52;;;;;;;26.48;23.75;;;11.10;87.70;;;;;;5091594;28;20071;-45
2023/04/16 08:16:19;;;;;;;27.02;24.08;;;11.20;87.70;;;;;;5077256;28;20029;-48
2023/04/16 08:18:53;;;;;;;27.85;23.95;;;11.20;86.80;;;;;;5060373;28;20345;-45
2023/04/16 08:21:19;;;;;;;27.83;24.13;;;11.30;86.60;;;;;;5091604;28;20032;-45
2023/04/16 08:23:46;;;;;;;23.67;21.30;;;11.30;86.30;;;;;;5068564;28;20044;-44
2023/04/16 08:26:13;;;;;;;23.83;21.38;;;11.40;86.20;;;;;;5085695;28;20358;-46
2023/04/16 08:28:38;;;;;;;24.65;22.25;;;11.40;85.80;;;;;;5095655;28;20032;-46
2023/04/16 08:31:06;;;;;;;27.80;23.42;;;11.40;85.60;;;;;;5085031;28;20035;-46
2023/04/16 08:33:33;;;;;;;25.73;22.70;;;11.50;86.00;;;;;;5082395;28;20119;-44
2023/04/16 08:36:03;;;;;;;26.35;22.30;;;11.50;85.60;;;;;;5087777;28;20036;-45
2023/04/16 08:38:32;;;;;;;26.27;23.33;;;11.60;86.00;;;;;;5065888;28;20457;-44
2023/04/16 08:41:04;;;;;;;25.50;22.88;;;11.60;85.50;;;;;;5087055;28;20036;-47
2023/04/16 08:43:43;;;;;;;24.60;22.23;;;11.60;85.90;;;;;;5049429;28;20127;-46
2023/04/16 08:46:15;;;;;;;25.38;22.67;;;11.70;85.70;;;;;;5068330;28;20035;-49
2023/04/16 08:48:45;;;;;;;24.35;21.75;;;11.70;84.80;;;;;;5069420;28;20098;-45
2023/04/16 08:51:18;;;;;;;24.77;21.63;;;11.70;84.80;;;;;;5065745;28;20327;-45
2023/04/16 08:54:07;;;;;;;29.88;23.65;;;11.80;84.20;;;;;;5058382;28;20456;-46
2023/04/16 08:56:37;;;;;;;25.33;22.80;;;11.80;84.20;;;;;;5037250;28;20110;-47
2023/04/16 08:59:04;;;;;;;23.92;21.55;;;11.90;84.80;;;;;;5060715;28;20453;-47
2023/04/16 09:01:34;;;;;;;23.70;21.33;;;12.00;84.60;;;;;;5094117;28;20032;-45
2023/04/16 09:04:01;;;;;;;23.48;21.08;;;12.30;84.50;;;;;;5093209;28;20441;-46
2023/04/16 09:06:33;;;;;;;24.20;21.67;;;12.30;83.50;;;;;;5074087;28;20063;-47
2023/04/16 09:09:03;;;;;;;22.58;20.23;;;12.40;82.70;;;;;;5058223;28;20032;-46
2023/04/16 09:11:31;;;;;;;21.85;19.55;;;12.40;81.80;;;;;;5064758;28;20490;-45
2023/04/16 09:14:03;;;;;;;25.67;21.05;;;12.60;82.00;;;;;;5078372;28;20119;-48
2023/04/16 09:16:32;;;;;;;22.48;19.65;;;12.70;80.90;;;;;;5084683;28;20491;-47
2023/04/16 09:18:59;;;;;;;;;;;12.70;80.70;;;;;;5082826;28;20361;-50
2023/04/16 09:21:26;;;;;;;21.88;19.63;;;12.90;80.50;;;;;;5073137;28;20356;-45
2023/04/16 09:24:06;;;;;;;23.55;19.08;;;13.00;80.00;;;;;;5064897;28;20078;-48
2023/04/16 09:26:35;;;;;;;21.38;19.20;;;13.20;78.60;;;;;;5086607;28;20047;-45
2023/04/16 09:29:04;;;;;;;19.90;17.83;;;13.30;77.60;;;;;;5088610;28;20051;-44
2023/04/16 09:31:31;;;;;;;19.65;17.65;;;13.40;77.20;;;;;;5072790;28;20036;-47
2023/04/16 09:34:09;;;;;;;20.40;17.52;;;13.50;76.00;;;;;;5077508;28;20028;-45
2023/04/16 09:36:36;;;;;;;18.95;16.85;;;13.70;75.50;;;;;;5059418;28;20033;-47
2023/04/16 09:39:03;;;;;;;21.15;16.83;;;13.80;74.90;;;;;;5060558;28;20043;-52
2023/04/16 09:41:31;;;;;;;18.42;16.52;;;13.90;74.20;;;;;;5085857;28;20031;-46
2023/04/16 09:43:58;;;;;;;19.15;17.10;;;14.00;74.50;;;;;;5060753;28;20111;-46
2023/04/16 09:46:42;;;;;;;19.52;17.20;;;13.90;73.80;;;;;;5086059;28;20028;-45
2023/04/16 09:49:19;;;;;;;20.10;17.80;;;13.90;73.20;;;;;;5091088;28;20039;-47
2023/04/16 09:51:49;;;;;;;23.48;17.83;;;13.90;73.50;;;;;;5093477;28;20464;-51
2023/04/16 09:54:19;;;;;;;20.27;16.98;;;14.10;73.60;;;;;;5068524;28;20112;-47
2023/04/16 09:56:46;;;;;;;18.58;16.52;;;14.20;72.20;;;;;;5083740;28;20013;-46
2023/04/16 09:59:22;;;;;;;20.95;17.65;;;14.50;72.40;;;;;;5061425;28;20035;-48
2023/04/16 10:01:57;;;;;;;18.40;16.45;;;14.80;71.60;;;;;;5087357;28;20056;-47
2023/04/16 10:04:23;;;;;;;22.67;16.67;;;14.90;70.90;;;;;;5071951;28;20040;-47
2023/04/16 10:07:12;;;;;;;20.27;17.85;;;14.80;71.30;;;;;;5082682;28;20035;-48
2023/04/16 10:09:39;;;;;;;21.20;17.67;;;14.70;71.60;;;;;;5087545;28;20449;-46
2023/04/16 10:12:06;;;;;;;23.88;18.92;;;14.90;71.80;;;;;;5073707;28;20032;-48
2023/04/16 10:14:35;;;;;;;19.35;17.48;;;14.90;71.80;;;;;;5068527;28;20040;-46
2023/04/16 10:17:02;;;;;;;20.52;18.27;;;15.00;71.20;;;;;;5079990;28;20225;-48
2023/04/16 10:19:34;;;;;;;20.65;18.65;;;15.20;71.30;;;;;;5071155;28;20044;-51
2023/04/16 10:22:04;;;;;;;20.65;18.55;;;15.10;71.90;;;;;;5073982;28;20029;-46
2023/04/16 10:24:42;;;;;;;19.38;17.42;;;15.20;71.00;;;;;;5076978;28;20513;-47
2023/04/16 10:27:09;;;;;;;23.60;19.27;;;15.20;69.90;;;;;;5076098;28;20039;-46
2023/04/16 10:29:47;;;;;;;20.73;18.52;;;15.20;70.00;;;;;;5090346;28;20024;-47
2023/04/16 10:32:17;;;;;;;20.73;18.65;;;15.20;70.10;;;;;;5072399;28;20123;-46
2023/04/16 10:34:44;;;;;;;20.08;18.08;;;15.20;69.90;;;;;;5073767;28;20020;-49
2023/04/16 10:37:11;;;;;;;20.95;18.92;;;15.20;69.90;;;;;;5058584;28;20036;-46
2023/04/16 10:39:41;;;;;;;20.85;18.65;;;15.30;70.50;;;;;;5085592;28;20036;-49
2023/04/16 10:42:12;;;;;;;21.13;18.92;;;15.10;71.60;;;;;;5088718;28;20035;-47
2023/04/16 10:44:40;;;;;;;20.92;18.75;;;15.30;71.80;;;;;;5070068;28;20028;-47
2023/04/16 10:47:12;;;;;;;21.77;19.40;;;15.40;71.70;;;;;;5076445;28;20111;-48
2023/04/16 10:49:49;;;;;;;19.77;17.65;;;15.40;71.10;;;;;;5073038;28;20025;-49
2023/04/16 10:52:16;;;;;;;21.98;19.80;;;15.20;71.00;;;;;;5073086;28;20044;-48
2023/04/16 10:54:43;;;;;;;22.25;20.08;;;15.10;72.00;;;;;;5091132;28;20429;-46
2023/04/16 10:57:16;;;;;;;22.15;19.83;;;15.10;72.70;;;;;;5074619;28;20047;-47
2023/04/16 10:59:45;;;;;;;20.73;18.65;;;15.10;72.70;;;;;;5075454;28;20032;-50
2023/04/16 11:02:29;;;;;;;20.05;18.05;;;15.20;72.90;;;;;;5085446;28;20028;-46
2023/04/16 11:05:00;;;;;;;21.67;19.42;;;15.20;72.50;;;;;;5073652;28;20360;-47
2023/04/16 11:07:33;;;;;;;20.45;18.45;;;15.20;72.70;;;;;;5022723;28;20131;-46
2023/04/16 11:10:14;;;;;;;19.55;17.63;;;15.30;72.30;;;;;;5068586;28;20029;-46
2023/04/16 11:12:59;;;;;;;20.27;18.05;;;15.20;71.90;;;;;;5086544;28;20036;-53
2023/04/16 11:15:32;;;;;;;19.25;17.08;;;15.00;70.90;;;;;;5083095;28;20028;-47
2023/04/16 11:17:59;;;;;;;19.08;17.23;;;15.00;70.70;;;;;;5088432;28;20039;-46
2023/04/16 11:20:32;;;;;;;18.85;16.95;;;15.00;71.40;;;;;;5084034;28;20326;-47
2023/04/16 11:22:59;;;;;;;21.13;18.75;;;14.90;70.40;;;;;;5083961;28;20032;-50
2023/04/16 11:25:32;;;;;;;20.63;18.42;;;14.80;70.50;;;;;;5078665;28;20024;-47
2023/04/16 11:28:00;;;;;;;21.58;19.30;;;14.70;71.40;;;;;;5072608;28;20047;-47
2023/04/16 11:30:35;;;;;;;21.27;19.10;;;14.70;71.10;;;;;;5044317;28;20032;-47
2023/04/16 11:33:13;;;;;;;21.38;19.17;;;14.70;71.30;;;;;;5060283;28;20063;-46
2023/04/16 11:35:42;;;;;;;18.65;16.73;;;14.80;69.60;;;;;;5075801;28;20036;-48
2023/04/16 11:38:10;;;;;;;20.58;18.58;;;14.60;70.60;;;;;;5051880;28;20059;-47
2023/04/16 11:40:42;;;;;;;22.20;19.80;;;14.70;71.50;;;;;;5086448;28;20104;-49
2023/04/16 11:43:21;;;;;;;21.15;18.13;;;14.70;71.60;;;;;;5083067;28;20024;-46
2023/04/16 11:46:02;;;;;;;22.98;20.65;;;14.70;70.40;;;;;;5076918;28;20107;-48
2023/04/16 11:48:51;;;;;;;21.63;19.30;;;14.90;73.40;;;;;;5075298;28;20050;-47
2023/04/16 11:51:17;;;;;;;20.75;17.70;;;15.30;71.50;;;;;;5078354;28;20488;-49
2023/04/16 11:53:49;;;;;;;18.80;16.83;;;15.40;70.70;;;;;;5063932;28;20032;-50
2023/04/16 11:56:24;;;;;;;17.42;14.88;;;15.40;68.20;;;;;;5076026;28;20044;-46
2023/04/16 11:59:36;;;;;;;19.90;16.73;;;15.40;66.70;;;;;;5063409;28;20181;-48
2023/04/16 12:02:04;;;;;;;20.33;18.17;;;15.20;69.40;;;;;;5058207;28;20028;-46
2023/04/16 12:04:33;;;;;;;16.42;14.82;;;15.20;70.60;;;;;;5081249;28;20193;-51
2023/04/16 12:07:15;;;;;;;21.70;16.92;;;15.00;68.40;;;;;;5080235;28;20115;-46
2023/04/16 12:09:42;;;;;;;17.50;15.70;;;15.20;68.80;;;;;;5070351;28;20028;-46
2023/04/16 12:12:30;;;;;;;18.65;15.90;;;15.20;68.50;;;;;;5067834;28;20361;-46
2023/04/16 12:14:58;;;;;;;18.02;15.32;;;15.10;68.50;;;;;;5079991;28;20695;-49
2023/04/16 12:17:24;;;;;;;20.23;16.70;;;15.20;70.60;;;;;;5042763;28;20089;-47
2023/04/16 12:20:04;;;;;;;17.08;15.27;;;15.10;66.90;;;;;;5076363;28;20040;-47
2023/04/16 12:22:51;;;;;;;18.25;15.90;;;15.10;69.80;;;;;;5056791;28;20025;-46
2023/04/16 12:25:17;;;;;;;20.15;18.05;;;15.10;69.90;;;;;;5084215;28;20417;-48
2023/04/16 12:28:02;;;;;;;20.60;18.42;;;14.90;70.50;;;;;;5058812;28;20107;-46
2023/04/16 12:30:29;;;;;;;21.70;17.98;;;14.50;71.20;;;;;;5057423;28;20028;-48
2023/04/16 12:33:15;;;;;;;21.60;19.42;;;14.40;72.30;;;;;;5074470;28;20024;-49
2023/04/16 12:35:42;;;;;;;19.90;17.88;;;14.30;72.90;;;;;;5071076;28;20118;-45
2023/04/16 12:38:09;;;;;;;20.10;18.10;;;14.20;72.60;;;;;;5071127;28;20393;-49
2023/04/16 12:40:38;;;;;;;20.63;18.40;;;14.30;72.90;;;;;;5045055;28;20182;-49
2023/04/16 12:43:03;;;;;;;20.77;18.73;;;14.40;74.00;;;;;;5052986;28;20445;-46